createdAt,value
2018-06-28T00:00:32.623Z,5.70
2018-06-28T00:03:01.254Z,4.83
2018-06-28T00:05:29.816Z,4.43
2018-06-28T00:07:58.358Z,4.87
2018-06-28T00:10:26.948Z,5.00
2018-06-28T00:12:55.497Z,5.10
2018-06-28T00:15:24.076Z,5.17
2018-06-28T00:17:52.615Z,4.80
2018-06-28T00:20:21.159Z,5.20
2018-06-28T00:22:49.739Z,5.67
2018-06-28T00:25:18.296Z,5.13
2018-06-28T00:27:46.505Z,5.87
2018-06-28T00:30:15.070Z,5.13
2018-06-28T00:32:43.606Z,5.03
2018-06-28T00:35:12.162Z,5.50
2018-06-28T00:37:40.731Z,5.60
2018-06-28T00:40:09.249Z,4.93
2018-06-28T00:42:37.742Z,5.23
2018-06-28T00:45:06.287Z,5.20
2018-06-28T00:47:34.862Z,5.43
2018-06-28T00:50:03.855Z,5.43
2018-06-28T00:52:32.500Z,5.23
2018-06-28T00:55:01.090Z,5.20
2018-06-28T00:57:29.627Z,5.90
2018-06-28T00:59:58.192Z,4.70
2018-06-28T01:02:26.743Z,5.30
2018-06-28T01:04:55.277Z,5.33
2018-06-28T01:07:23.863Z,5.27
2018-06-28T01:09:52.626Z,5.73
2018-06-28T01:12:21.131Z,5.23
2018-06-28T01:14:49.731Z,5.63
2018-06-28T01:17:18.311Z,5.33
2018-06-28T01:19:46.863Z,5.17
2018-06-28T01:22:15.434Z,5.57
2018-06-28T01:24:43.995Z,5.40
2018-06-28T01:27:12.525Z,5.20
2018-06-28T01:29:41.191Z,5.00
2018-06-28T01:32:09.734Z,6.10
2018-06-28T01:34:38.287Z,4.70
2018-06-28T01:37:06.857Z,5.83
2018-06-28T01:39:35.421Z,5.37
2018-06-28T01:42:15.201Z,4.90
2018-06-28T01:44:43.744Z,5.60
2018-06-28T01:47:12.262Z,5.20
2018-06-28T01:49:40.794Z,5.40
2018-06-28T01:52:09.316Z,5.57
2018-06-28T01:54:37.887Z,5.60
2018-06-28T01:57:06.432Z,6.00
2018-06-28T01:59:34.642Z,6.17
2018-06-28T02:02:03.197Z,5.70
2018-06-28T02:04:31.738Z,6.10
2018-06-28T02:07:00.300Z,5.83
2018-06-28T02:09:28.830Z,4.97
2018-06-28T02:11:57.357Z,5.60
2018-06-28T02:14:25.884Z,5.90
2018-06-28T02:16:54.436Z,6.00
2018-06-28T02:19:23.154Z,6.03
2018-06-28T02:21:51.683Z,5.50
2018-06-28T02:24:20.258Z,5.80
2018-06-28T02:26:48.786Z,5.47
2018-06-28T02:29:17.342Z,5.63
2018-06-28T02:31:45.902Z,6.00
2018-06-28T02:34:14.428Z,6.60
2018-06-28T02:36:42.987Z,6.50
2018-06-28T02:39:11.483Z,5.60
2018-06-28T02:41:40.106Z,6.57
2018-06-28T02:44:11.573Z,6.60
2018-06-28T02:46:40.146Z,6.43
2018-06-28T02:49:08.714Z,7.00
2018-06-28T02:51:37.245Z,6.47
2018-06-28T02:54:05.822Z,6.70
2018-06-28T02:56:34.400Z,6.50
2018-06-28T02:59:02.970Z,6.27
2018-06-28T03:01:31.179Z,6.93
2018-06-28T03:03:59.732Z,6.30
2018-06-28T03:06:28.246Z,6.00
2018-06-28T03:08:56.867Z,5.73
2018-06-28T03:11:25.399Z,6.13
2018-06-28T03:13:53.929Z,7.00
2018-06-28T03:16:22.489Z,6.40
2018-06-28T03:18:51.049Z,6.47
2018-06-28T03:21:19.578Z,7.07
2018-06-28T03:23:48.074Z,7.00
2018-06-28T03:26:16.603Z,7.20
2018-06-28T03:28:45.188Z,6.73
2018-06-28T03:31:13.723Z,7.37
2018-06-28T03:33:42.318Z,7.60
2018-06-28T03:36:10.835Z,6.30
2018-06-28T03:38:39.578Z,6.90
2018-06-28T03:41:08.151Z,7.17
2018-06-28T03:43:36.794Z,6.90
2018-06-28T03:46:05.381Z,7.50
2018-06-28T03:48:33.916Z,8.40
2018-06-28T03:51:02.482Z,6.97
2018-06-28T03:53:31.019Z,6.30
2018-06-28T03:55:59.627Z,7.00
2018-06-28T03:58:28.460Z,6.53
2018-06-28T04:00:57.016Z,7.00
2018-06-28T04:03:25.578Z,6.90
2018-06-28T04:05:54.106Z,7.20
2018-06-28T04:08:22.653Z,7.70
2018-06-28T04:10:51.179Z,7.20
2018-06-28T04:13:19.401Z,7.17
2018-06-28T04:15:47.926Z,6.67
2018-06-28T04:18:16.715Z,7.33
2018-06-28T04:20:45.271Z,7.07
2018-06-28T04:23:13.834Z,6.87
2018-06-28T04:25:42.366Z,7.27
2018-06-28T04:28:10.879Z,6.60
2018-06-28T04:30:39.438Z,7.60
2018-06-28T04:33:07.938Z,6.77
2018-06-28T04:35:36.506Z,7.23
2018-06-28T04:38:05.292Z,7.13
2018-06-28T04:40:33.831Z,7.70
2018-06-28T04:43:02.356Z,7.60
2018-06-28T04:45:30.871Z,7.40
2018-06-28T04:47:59.379Z,7.53
2018-06-28T04:50:27.921Z,8.00
2018-06-28T04:52:56.454Z,7.07
2018-06-28T04:55:25.027Z,7.57
2018-06-28T04:57:53.589Z,9.87
2018-06-28T05:00:22.161Z,6.77
2018-06-28T05:02:50.728Z,7.40
2018-06-28T05:05:19.297Z,7.23
2018-06-28T05:07:47.874Z,7.70
2018-06-28T05:10:16.446Z,7.23
2018-06-28T05:12:45.008Z,8.60
2018-06-28T05:15:13.594Z,8.07
2018-06-28T05:17:42.146Z,8.43
2018-06-28T05:20:10.669Z,8.00
2018-06-28T05:22:39.286Z,8.13
2018-06-28T05:25:08.259Z,8.90
2018-06-28T05:27:36.808Z,7.87
2018-06-28T05:30:05.703Z,8.33
2018-06-28T05:32:34.271Z,9.70
2018-06-28T05:35:02.807Z,8.27
2018-06-28T05:37:31.384Z,7.60
2018-06-28T05:39:59.889Z,8.63
2018-06-28T05:42:28.124Z,8.40
2018-06-28T05:44:56.662Z,9.27
2018-06-28T05:47:25.242Z,7.63
2018-06-28T05:49:54.697Z,8.10
2018-06-28T05:52:23.273Z,8.23
2018-06-28T05:54:51.838Z,7.10
2018-06-28T05:57:20.371Z,7.83
2018-06-28T05:59:48.911Z,7.60
2018-06-28T06:02:17.443Z,7.27
2018-06-28T06:04:45.969Z,13.50
2018-06-28T06:07:14.566Z,7.23
2018-06-28T06:09:43.109Z,8.90
2018-06-28T06:12:11.666Z,7.07
2018-06-28T06:14:40.218Z,9.33
2018-06-28T06:17:08.741Z,7.70
2018-06-28T06:19:37.359Z,6.27
2018-06-28T06:22:05.862Z,5.83
2018-06-28T06:24:34.434Z,5.70
2018-06-28T06:27:02.978Z,6.10
2018-06-28T06:29:31.548Z,6.27
2018-06-28T06:32:00.053Z,7.53
2018-06-28T06:34:28.556Z,11.30
2018-06-28T06:36:57.114Z,6.17
2018-06-28T06:39:25.734Z,6.20
2018-06-28T06:41:54.255Z,6.70
2018-06-28T06:44:22.825Z,6.03
2018-06-28T06:46:51.407Z,6.37
2018-06-28T06:49:20.098Z,6.50
2018-06-28T06:51:48.677Z,5.80
2018-06-28T06:54:17.237Z,6.40
2018-06-28T06:56:45.858Z,6.30
2018-06-28T06:59:14.434Z,6.53
2018-06-28T07:01:42.993Z,6.17
2018-06-28T07:04:11.570Z,6.87
2018-06-28T07:06:40.133Z,7.13
2018-06-28T07:09:10.961Z,5.73
2018-06-28T07:11:39.858Z,6.83
2018-06-28T07:14:08.471Z,5.73
2018-06-28T07:16:37.002Z,6.50
2018-06-28T07:19:05.804Z,6.53
2018-06-28T07:21:34.362Z,6.53
2018-06-28T07:24:02.895Z,6.60
2018-06-28T07:26:31.493Z,6.10
2018-06-28T07:29:00.043Z,6.47
2018-06-28T07:31:28.694Z,6.13
2018-06-28T07:33:57.367Z,6.70
2018-06-28T07:36:25.853Z,6.20
2018-06-28T07:38:54.447Z,6.30
2018-06-28T07:41:22.924Z,6.17
2018-06-28T07:43:51.507Z,6.47
2018-06-28T07:46:20.019Z,6.80
2018-06-28T07:48:49.346Z,6.47
2018-06-28T07:51:17.997Z,6.10
2018-06-28T07:53:46.563Z,5.87
2018-06-28T07:56:15.144Z,5.33
2018-06-28T07:58:43.682Z,6.07
2018-06-28T08:01:12.290Z,6.50
2018-06-28T08:03:40.842Z,5.60
2018-06-28T08:06:09.536Z,6.23
2018-06-28T08:08:39.340Z,5.83
2018-06-28T08:11:07.860Z,6.43
2018-06-28T08:13:36.423Z,6.30
2018-06-28T08:16:06.020Z,5.90
2018-06-28T08:18:34.598Z,6.63
2018-06-28T08:21:03.091Z,6.20
2018-06-28T08:23:31.662Z,7.80
2018-06-28T08:26:00.262Z,6.10
2018-06-28T08:28:28.898Z,7.33
2018-06-28T08:30:57.530Z,6.87
2018-06-28T08:33:26.080Z,6.53
2018-06-28T08:35:54.772Z,6.00
2018-06-28T08:38:23.263Z,7.53
2018-06-28T08:40:51.835Z,6.47
2018-06-28T08:43:20.378Z,8.27
2018-06-28T08:45:48.934Z,7.03
2018-06-28T08:48:17.861Z,6.60
2018-06-28T08:50:46.414Z,7.60
2018-06-28T08:53:14.942Z,6.87
2018-06-28T08:55:43.157Z,7.00
2018-06-28T08:58:11.740Z,7.10
2018-06-28T09:00:40.294Z,6.80
2018-06-28T09:03:08.916Z,7.67
2018-06-28T09:05:37.508Z,8.37
2018-06-28T09:08:06.179Z,7.10
2018-06-28T09:10:34.747Z,6.70
2018-06-28T09:13:03.359Z,7.07
2018-06-28T09:15:31.932Z,7.53
2018-06-28T09:18:00.752Z,8.67
2018-06-28T09:20:29.389Z,6.60
2018-06-28T09:22:57.966Z,6.50
2018-06-28T09:25:26.508Z,7.07
2018-06-28T09:27:55.076Z,8.57
2018-06-28T09:30:23.650Z,6.57
2018-06-28T09:32:52.181Z,7.30
2018-06-28T09:35:20.746Z,6.90
2018-06-28T09:37:50.259Z,7.70
2018-06-28T09:40:18.889Z,7.73
2018-06-28T09:42:47.553Z,6.97
2018-06-28T09:45:16.148Z,7.60
2018-06-28T09:47:44.690Z,7.00
2018-06-28T09:50:13.262Z,7.43
2018-06-28T09:52:41.813Z,7.10
2018-06-28T09:55:10.388Z,7.00
2018-06-28T09:57:38.998Z,6.73
2018-06-28T10:00:08.242Z,6.70
2018-06-28T10:02:36.800Z,6.80
2018-06-28T10:05:06.234Z,6.63
2018-06-28T10:07:34.775Z,7.00
2018-06-28T10:10:03.378Z,7.13
2018-06-28T10:12:32.454Z,7.30
2018-06-28T10:15:01.085Z,7.07
2018-06-28T10:17:29.613Z,6.60
2018-06-28T10:19:58.195Z,8.10
2018-06-28T10:22:26.698Z,7.07
2018-06-28T10:24:55.269Z,6.90
2018-06-28T10:27:23.966Z,8.07
2018-06-28T10:29:52.620Z,7.30
2018-06-28T10:32:21.134Z,8.37
2018-06-28T10:34:49.638Z,8.73
2018-06-28T10:37:18.224Z,9.27
2018-06-28T10:39:47.418Z,8.53
2018-06-28T10:42:15.956Z,9.17
2018-06-28T10:44:44.479Z,9.07
2018-06-28T10:47:13.119Z,10.47
2018-06-28T10:49:41.808Z,8.93
2018-06-28T10:52:10.301Z,8.43
2018-06-28T10:54:38.920Z,11.27
2018-06-28T10:57:08.061Z,9.60
2018-06-28T10:59:52.964Z,12.90
2018-06-28T11:02:21.803Z,9.80
2018-06-28T11:04:50.384Z,11.17
2018-06-28T11:07:18.905Z,9.93
2018-06-28T11:09:47.448Z,13.87
2018-06-28T11:12:16.051Z,10.23
2018-06-28T11:14:45.317Z,10.97
2018-06-28T11:17:13.847Z,9.73
2018-06-28T11:19:42.410Z,9.87
2018-06-28T11:22:10.914Z,10.00
2018-06-28T11:24:39.931Z,11.27
2018-06-28T11:27:08.510Z,9.70
2018-06-28T11:29:37.082Z,9.83
2018-06-28T11:32:05.702Z,10.07
2018-06-28T11:34:34.272Z,10.83
2018-06-28T11:37:02.859Z,11.70
2018-06-28T11:39:31.409Z,11.27
2018-06-28T11:42:00.020Z,10.80
2018-06-28T11:44:28.641Z,10.80
2018-06-28T11:46:57.303Z,10.80
2018-06-28T11:49:26.043Z,11.30
2018-06-28T11:51:54.557Z,10.53
2018-06-28T11:54:23.123Z,10.80
2018-06-28T11:56:51.743Z,10.87
2018-06-28T11:59:20.329Z,11.43
2018-06-28T12:01:48.881Z,9.57
2018-06-28T12:04:17.420Z,10.67
2018-06-28T12:06:45.977Z,10.23
2018-06-28T12:09:14.566Z,10.67
2018-06-28T12:11:43.112Z,11.67
2018-06-28T12:14:12.368Z,11.90
2018-06-28T12:16:40.979Z,11.23
2018-06-28T12:19:09.546Z,10.50
2018-06-28T12:21:38.104Z,11.00
2018-06-28T12:24:06.861Z,10.47
2018-06-28T12:26:35.454Z,11.57
2018-06-28T12:29:03.997Z,12.00
2018-06-28T12:31:32.610Z,12.20
2018-06-28T12:34:01.203Z,12.03
2018-06-28T12:36:29.796Z,11.33
2018-06-28T12:39:05.107Z,12.33
2018-06-28T12:41:33.666Z,11.43
2018-06-28T12:44:03.043Z,11.10
2018-06-28T12:46:42.638Z,12.97
2018-06-28T12:49:11.236Z,11.10
2018-06-28T12:51:50.785Z,12.10
2018-06-28T12:54:20.002Z,12.90
2018-06-28T12:56:51.046Z,14.77
2018-06-28T12:59:22.555Z,12.90
2018-06-28T13:01:51.718Z,13.50
2018-06-28T13:04:20.312Z,13.77
2018-06-28T13:06:48.876Z,13.47
2018-06-28T13:09:18.474Z,12.67
2018-06-28T13:11:47.138Z,12.70
2018-06-28T13:14:16.665Z,13.30
2018-06-28T13:16:45.295Z,12.77
2018-06-28T13:19:14.505Z,13.00
2018-06-28T13:21:43.022Z,13.17
2018-06-28T13:24:11.624Z,13.27
2018-06-28T13:26:40.242Z,12.60
2018-06-28T13:29:08.884Z,14.20
2018-06-28T13:31:37.443Z,13.70
2018-06-28T13:34:05.647Z,12.50
2018-06-28T13:36:37.898Z,12.77
2018-06-28T13:39:07.274Z,13.20
2018-06-28T13:41:36.365Z,13.23
2018-06-28T13:44:04.526Z,12.10
2018-06-28T13:46:33.132Z,12.47
2018-06-28T13:49:01.720Z,12.03
2018-06-28T13:51:30.241Z,13.50
2018-06-28T13:53:58.798Z,13.10
2018-06-28T13:56:27.387Z,13.37
2018-06-28T13:58:55.959Z,13.63
2018-06-28T14:01:24.495Z,11.70
2018-06-28T14:03:53.074Z,10.73
2018-06-28T14:06:21.655Z,12.90
2018-06-28T14:08:50.241Z,11.80
2018-06-28T14:11:18.833Z,12.10
2018-06-28T14:13:47.399Z,12.80
2018-06-28T14:16:16.550Z,12.27
2018-06-28T14:18:45.155Z,13.03
2018-06-28T14:21:13.706Z,13.30
2018-06-28T14:23:42.217Z,12.03
2018-06-28T14:26:10.730Z,13.27
2018-06-28T14:28:39.274Z,14.73
2018-06-28T14:31:08.745Z,14.87
2018-06-28T14:33:37.325Z,14.07
2018-06-28T14:36:06.008Z,15.07
2018-06-28T14:38:34.591Z,14.60
2018-06-28T14:41:03.147Z,15.83
2018-06-28T14:43:31.714Z,13.10
2018-06-28T14:46:00.222Z,14.10
2018-06-28T14:48:36.198Z,15.13
2018-06-28T14:51:04.783Z,14.47
2018-06-28T14:53:33.974Z,13.77
2018-06-28T14:56:03.144Z,15.70
2018-06-28T14:58:32.869Z,14.90
2018-06-28T15:01:01.428Z,14.60
2018-06-28T15:03:29.971Z,16.03
2018-06-28T15:05:58.529Z,15.17
2018-06-28T15:08:27.775Z,15.63
2018-06-28T15:10:56.356Z,16.87
2018-06-28T15:13:25.046Z,15.80
2018-06-28T15:15:54.124Z,17.07
2018-06-28T15:18:22.707Z,16.80
2018-06-28T15:20:51.240Z,17.33
2018-06-28T15:23:19.766Z,16.50
2018-06-28T15:25:48.799Z,14.97
2018-06-28T15:28:17.331Z,15.77
2018-06-28T15:30:45.921Z,16.13
2018-06-28T15:33:15.202Z,17.40
2018-06-28T15:35:43.679Z,16.00
2018-06-28T15:38:12.602Z,15.60
2018-06-28T15:40:41.187Z,15.80
2018-06-28T15:43:09.759Z,15.10
2018-06-28T15:45:38.316Z,15.80
2018-06-28T15:48:07.078Z,16.67
2018-06-28T15:50:35.811Z,17.27
2018-06-28T15:53:05.080Z,16.90
2018-06-28T15:55:33.679Z,17.80
2018-06-28T15:58:02.243Z,18.40
2018-06-28T16:00:30.831Z,17.70
2018-06-28T16:02:59.469Z,17.83
2018-06-28T16:05:28.014Z,16.87
2018-06-28T16:07:56.607Z,17.83
2018-06-28T16:10:25.192Z,18.27
2018-06-28T16:12:53.744Z,17.80
2018-06-28T16:15:22.998Z,17.10
2018-06-28T16:17:51.542Z,18.10
2018-06-28T16:20:20.120Z,16.53
2018-06-28T16:22:48.705Z,17.93
2018-06-28T16:25:17.254Z,17.00
2018-06-28T16:27:45.851Z,17.83
2018-06-28T16:30:14.462Z,16.27
2018-06-28T16:32:43.065Z,16.30
2018-06-28T16:35:11.698Z,16.27
2018-06-28T16:37:40.747Z,15.80
2018-06-28T16:40:09.486Z,15.53
2018-06-28T16:42:38.910Z,16.00
2018-06-28T16:45:07.526Z,17.80
2018-06-28T16:47:36.140Z,17.80
2018-06-28T16:50:04.930Z,17.00
2018-06-28T16:52:33.181Z,15.93
2018-06-28T16:55:01.785Z,14.97
2018-06-28T16:57:30.341Z,15.53
2018-06-28T16:59:58.977Z,15.80
2018-06-28T17:02:27.639Z,16.90
2018-06-28T17:04:56.204Z,17.70
2018-06-28T17:07:24.744Z,20.27
2018-06-28T17:09:53.342Z,17.83
2018-06-28T17:12:22.847Z,17.83
2018-06-28T17:14:51.415Z,18.77
2018-06-28T17:17:20.090Z,20.87
2018-06-28T17:19:48.663Z,20.77
2018-06-28T17:22:17.245Z,21.70
2018-06-28T17:24:45.822Z,22.50
2018-06-28T17:27:15.163Z,21.27
2018-06-28T17:29:43.790Z,19.17
2018-06-28T17:32:12.362Z,19.40
2018-06-28T17:34:40.999Z,20.53
2018-06-28T17:37:09.591Z,20.60
2018-06-28T17:39:38.136Z,20.63
2018-06-28T17:42:07.433Z,17.33
2018-06-28T17:44:35.963Z,15.80
2018-06-28T17:47:05.487Z,18.17
2018-06-28T17:49:34.085Z,15.23
2018-06-28T17:52:02.739Z,12.80
2018-06-28T17:54:31.397Z,14.80
2018-06-28T17:57:00.924Z,15.00
2018-06-28T17:59:30.362Z,14.93
2018-06-28T18:01:58.925Z,13.80
2018-06-28T18:04:28.528Z,15.30
2018-06-28T18:06:57.045Z,13.70
2018-06-28T18:09:25.639Z,15.60
2018-06-28T18:11:54.198Z,13.63
2018-06-28T18:14:22.446Z,12.33
2018-06-28T18:16:51.907Z,12.00
2018-06-28T18:19:20.889Z,9.77
2018-06-28T18:21:49.498Z,14.13
2018-06-28T18:24:18.222Z,13.73
2018-06-28T18:26:47.101Z,15.03
2018-06-28T18:29:15.695Z,14.97
2018-06-28T18:31:44.216Z,15.60
2018-06-28T18:34:12.808Z,14.27
2018-06-28T18:36:41.839Z,13.57
2018-06-28T18:39:10.872Z,11.87
2018-06-28T18:41:40.010Z,13.10
2018-06-28T18:44:09.260Z,12.10
2018-06-28T18:46:40.435Z,12.17
2018-06-28T18:49:09.065Z,12.90
2018-06-28T18:51:37.879Z,12.90
2018-06-28T18:54:06.535Z,12.07
2018-06-28T18:56:35.384Z,13.90
2018-06-28T18:59:03.966Z,12.90
2018-06-28T19:01:34.135Z,13.80
2018-06-28T19:04:02.750Z,12.47
2018-06-28T19:06:32.569Z,13.23
2018-06-28T19:09:01.117Z,13.20
2018-06-28T19:11:29.707Z,12.30
2018-06-28T19:14:03.630Z,12.33
2018-06-28T19:16:37.410Z,13.73
2018-06-28T19:19:06.615Z,12.87
2018-06-28T19:21:40.679Z,12.00
2018-06-28T19:24:09.355Z,12.70
2018-06-28T19:26:39.094Z,12.00
2018-06-28T19:29:13.217Z,12.00
2018-06-28T19:31:47.339Z,13.20
2018-06-28T19:34:15.859Z,13.30
2018-06-28T19:36:44.710Z,12.17
2018-06-28T19:39:18.983Z,12.53
2018-06-28T19:41:53.707Z,12.33
2018-06-28T19:44:22.825Z,15.33
2018-06-28T19:46:52.259Z,13.70
2018-06-28T19:49:26.483Z,13.20
2018-06-28T19:52:00.299Z,14.07
2018-06-28T19:54:30.671Z,15.30
2018-06-28T19:57:01.129Z,15.20
2018-06-28T19:59:29.809Z,14.63
2018-06-28T20:02:04.411Z,13.80
2018-06-28T20:04:38.671Z,15.00
2018-06-28T20:07:07.801Z,13.80
2018-06-28T20:09:37.022Z,13.97
2018-06-28T20:12:11.090Z,14.70
2018-06-28T20:14:44.872Z,15.33
2018-06-28T20:17:18.621Z,15.63
2018-06-28T20:19:53.427Z,14.10
2018-06-28T20:22:22.425Z,15.43
2018-06-28T20:24:51.696Z,15.50
2018-06-28T20:27:26.620Z,15.53
2018-06-28T20:30:00.559Z,15.33
2018-06-28T20:32:34.314Z,15.80
2018-06-28T20:35:04.166Z,14.90
2018-06-28T20:37:33.188Z,15.70
2018-06-28T20:40:01.933Z,15.63
2018-06-28T20:42:30.497Z,15.80
2018-06-28T20:44:58.676Z,16.00
2018-06-28T20:47:27.956Z,16.40
2018-06-28T20:49:57.660Z,15.77
2018-06-28T20:52:27.105Z,15.67
2018-06-28T20:54:55.709Z,12.50
2018-06-28T20:57:24.868Z,13.30
2018-06-28T20:59:54.524Z,13.50
2018-06-28T21:02:23.191Z,13.50
2018-06-28T21:04:53.219Z,14.83
2018-06-28T21:07:23.477Z,12.47
2018-06-28T21:09:53.468Z,10.83
2018-06-28T21:12:22.236Z,11.63
2018-06-28T21:14:50.777Z,11.70
2018-06-28T21:17:19.340Z,11.60
2018-06-28T21:19:47.897Z,11.83
2018-06-28T21:22:16.562Z,14.10
2018-06-28T21:24:46.413Z,13.30
2018-06-28T21:27:15.621Z,12.67
2018-06-28T21:29:45.127Z,14.03
2018-06-28T21:32:14.633Z,14.80
2018-06-28T21:34:44.529Z,12.93
2018-06-28T21:37:13.847Z,14.77
2018-06-28T21:39:43.820Z,15.20
2018-06-28T21:42:13.239Z,13.77
2018-06-28T21:44:42.059Z,14.27
2018-06-28T21:47:10.645Z,13.07
2018-06-28T21:49:39.928Z,14.53
2018-06-28T21:52:11.691Z,15.33
2018-06-28T21:54:40.254Z,13.23
2018-06-28T21:57:09.074Z,13.80
2018-06-28T21:59:37.608Z,13.83
2018-06-28T22:02:06.266Z,13.10
2018-06-28T22:04:35.099Z,14.47
2018-06-28T22:07:03.687Z,15.17
2018-06-28T22:09:32.498Z,14.37
2018-06-28T22:12:01.056Z,14.63
2018-06-28T22:14:30.115Z,16.17
2018-06-28T22:17:00.338Z,14.57
2018-06-28T22:19:29.716Z,14.43
2018-06-28T22:21:58.249Z,14.03
2018-06-28T22:24:26.807Z,14.07
2018-06-28T22:26:55.369Z,14.73
2018-06-28T22:29:24.592Z,14.40
2018-06-28T22:31:53.150Z,14.60
2018-06-28T22:34:21.675Z,13.70
2018-06-28T22:36:51.733Z,15.17
2018-06-28T22:39:20.450Z,14.83
2018-06-28T22:41:48.978Z,14.20
2018-06-28T22:44:17.847Z,14.90
2018-06-28T22:46:46.686Z,13.57
2018-06-28T22:49:16.234Z,14.30
2018-06-28T22:51:44.771Z,13.40
2018-06-28T22:54:13.329Z,13.67
2018-06-28T22:56:42.635Z,13.50
2018-06-28T22:59:12.434Z,12.23
2018-06-28T23:01:41.098Z,12.30
2018-06-28T23:04:10.265Z,12.27
2018-06-28T23:06:38.853Z,13.37
2018-06-28T23:09:09.818Z,12.20
2018-06-28T23:11:38.380Z,12.80
2018-06-28T23:14:07.048Z,13.17
2018-06-28T23:16:35.467Z,13.80
2018-06-28T23:19:04.093Z,13.90
2018-06-28T23:21:32.584Z,13.80
2018-06-28T23:24:01.114Z,15.00
2018-06-28T23:26:30.159Z,14.57
2018-06-28T23:28:58.687Z,14.37
2018-06-28T23:31:27.178Z,13.53
2018-06-28T23:33:56.918Z,11.97
2018-06-28T23:36:28.396Z,13.90
2018-06-28T23:38:57.905Z,14.57
2018-06-28T23:41:27.066Z,13.73
2018-06-28T23:43:55.574Z,13.87
2018-06-28T23:46:24.131Z,13.87
2018-06-28T23:48:52.806Z,12.40
2018-06-28T23:51:22.028Z,14.67
2018-06-28T23:53:50.583Z,12.80
2018-06-28T23:56:19.924Z,13.30
2018-06-28T23:58:48.437Z,11.93
